This is the latest recevied weather packets stored in our database for station/object KG6QHD-13. If no packets are shown the sender has not sent any weather packets the latest 10 day(s).
| Time | Temp. | Humidity | Pressure | Rain* | Wind** | Luminosity | Snow |
|---|---|---|---|---|---|---|---|
| 1777410953 | 8.33° C | 60% | 1018.4 hPa | 0 mm | - | 357 W/m² | - |
| 1777410348 | 8.33° C | 61% | 1018.4 hPa | 0 mm | - | 279 W/m² | - |
| 1777407648 | 9.44° C | 55% | 1018.2 hPa | 0 mm | - | 148 W/m² | - |
| 1777407047 | 9.44° C | 54% | 1017.6 hPa | 0 mm | - | 171 W/m² | - |
| 1777405564 | 10° C | 55% | 1017.5 hPa | 0 mm | - | 346 W/m² | - |
| 1777403444 | 10° C | 56% | 1017.2 hPa | 0 mm | - | 461 W/m² | - |
| 1777402853 | 10° C | 56% | 1017 hPa | 0 mm | - | 350 W/m² | - |
| 1777401960 | 9.44° C | 60% | 1016.9 hPa | 0 mm | - | 330 W/m² | - |
| 1777401349 | 8.89° C | 60% | 1017 hPa | 0 mm | - | 316 W/m² | - |
| 1777400748 | 8.89° C | 64% | 1017.2 hPa | 0 mm | - | 1092 W/m² | - |
| 1777400448 | 8.89° C | 64% | 1017.4 hPa | 0 mm | - | 156 W/m² | - |
| 1777398948 | 7.78° C | 72% | 1017.2 hPa | 0 mm | - | 896 W/m² | - |
| 1777397454 | 6.67° C | 72% | 1017.5 hPa | 0 mm | - | 302 W/m² | - |
| 1777397148 | 6.67° C | 72% | 1017.5 hPa | 0 mm | - | 262 W/m² | - |
| 1777395349 | 5.56° C | 81% | 1017.5 hPa | 0 mm | - | 870 W/m² | - |
| 1777394148 | 3.33° C | 83% | 1017.6 hPa | 0.25 mm | - | 803 W/m² | - |
| 1777393856 | 3.33° C | 84% | 1017.5 hPa | 0.25 mm | - | 450 W/m² | - |
| 1777392059 | 2.22° C | 88% | 1017.6 hPa | 0.25 mm | - | 432 W/m² | - |
| 1777389357 | 1.11° C | 89% | 1017.7 hPa | 0 mm | - | 139 W/m² | - |
| 1777389048 | 1.11° C | 89% | 1017.6 hPa | 0 mm | - | 114 W/m² | - |
| 1777388749 | 1.11° C | 89% | 1017.7 hPa | 0 mm | - | 102 W/m² | - |
| 1777385445 | 0.56° C | 89% | 1017.5 hPa | 0 mm | - | 56 W/m² | - |
| 1777383970 | 0.56° C | 89% | 1017.2 hPa | 0 mm | - | 47 W/m² | - |
| 1777381262 | 0.56° C | 89% | 1016.4 hPa | 0 mm | - | 16 W/m² | - |
| 1777380646 | 0.56° C | 89% | 1015.9 hPa | 0 mm | - | 26 W/m² | - |
* Rain latest hour (hover to see other rain measurements)
** Current wind speed in m/s (hover to see current wind gust speed)